createdAt,value
2023-05-24T00:00:00.630Z,67.81
2023-05-24T00:02:28.345Z,67.43
2023-05-24T00:04:55.674Z,66.78
2023-05-24T00:07:22.837Z,66.30
2023-05-24T00:09:49.932Z,65.97
2023-05-24T00:12:17.042Z,65.84
2023-05-24T00:14:44.139Z,65.31
2023-05-24T00:17:12.948Z,64.93
2023-05-24T00:19:40.340Z,64.70
2023-05-24T00:22:07.518Z,64.72
2023-05-24T00:24:34.710Z,65.02
2023-05-24T00:27:01.935Z,65.15
2023-05-24T00:29:31.476Z,65.22
2023-05-24T00:32:00.830Z,65.25
2023-05-24T00:34:28.143Z,65.45
2023-05-24T00:36:55.176Z,65.31
2023-05-24T00:39:22.253Z,65.66
2023-05-24T00:41:49.557Z,65.85
2023-05-24T00:44:16.626Z,66.10
2023-05-24T00:46:44.353Z,66.31
2023-05-24T00:49:11.730Z,66.30
2023-05-24T00:51:38.962Z,66.33
2023-05-24T00:54:07.034Z,66.50
2023-05-24T00:56:34.428Z,66.55
2023-05-24T00:59:03.618Z,66.78
2023-05-24T01:01:34.911Z,66.97
2023-05-24T01:04:02.777Z,67.31
2023-05-24T01:06:36.802Z,67.31
2023-05-24T01:09:35.214Z,67.91
2023-05-24T01:12:15.769Z,67.89
2023-05-24T01:15:01.776Z,67.96
2023-05-24T01:17:42.957Z,68.19
2023-05-24T01:20:13.675Z,68.26
2023-05-24T01:22:59.414Z,68.08
2023-05-24T01:25:59.652Z,68.20
2023-05-24T01:28:28.385Z,68.48
2023-05-24T01:30:56.270Z,68.16
2023-05-24T01:33:25.858Z,68.40
2023-05-24T01:35:53.018Z,68.58
2023-05-24T01:38:20.074Z,68.70
2023-05-24T01:40:50.774Z,68.60
2023-05-24T01:43:35.213Z,68.69
2023-05-24T01:46:07.016Z,68.38
2023-05-24T01:49:02.365Z,68.02
2023-05-24T01:51:39.013Z,67.81
2023-05-24T01:54:07.081Z,67.18
2023-05-24T01:56:35.972Z,67.52
2023-05-24T01:59:03.751Z,67.64
2023-05-24T02:01:32.032Z,67.59
2023-05-24T02:03:59.729Z,67.61
2023-05-24T02:06:26.918Z,67.82
2023-05-24T02:08:53.976Z,67.87
2023-05-24T02:11:23.104Z,67.86
2023-05-24T02:13:50.225Z,67.11
2023-05-24T02:16:18.346Z,66.87
2023-05-24T02:18:46.946Z,66.96
2023-05-24T02:21:14.202Z,67.01
2023-05-24T02:23:41.293Z,66.84
2023-05-24T02:26:11.639Z,66.72
2023-05-24T02:28:38.830Z,66.48
2023-05-24T02:31:06.449Z,66.24
2023-05-24T02:33:35.419Z,66.09
2023-05-24T02:36:02.625Z,66.02
2023-05-24T02:38:29.710Z,66.21
2023-05-24T02:40:56.730Z,66.51
2023-05-24T02:43:23.954Z,66.68
2023-05-24T02:45:51.077Z,66.81
2023-05-24T02:48:18.242Z,67.06
2023-05-24T02:50:45.490Z,66.95
2023-05-24T02:53:12.794Z,67.00
2023-05-24T02:55:40.098Z,66.83
2023-05-24T02:58:08.473Z,66.82
2023-05-24T03:00:36.249Z,66.89
2023-05-24T03:03:03.538Z,66.96
2023-05-24T03:05:30.840Z,66.93
2023-05-24T03:07:58.593Z,66.92
2023-05-24T03:10:25.882Z,66.78
2023-05-24T03:12:52.921Z,66.96
2023-05-24T03:15:20.220Z,67.05
2023-05-24T03:17:47.679Z,66.87
2023-05-24T03:20:16.062Z,66.99
2023-05-24T03:22:43.563Z,67.04
2023-05-24T03:25:10.691Z,67.36
2023-05-24T03:27:38.667Z,67.33
2023-05-24T03:30:06.870Z,67.30
2023-05-24T03:32:41.154Z,67.28
2023-05-24T03:35:12.176Z,66.78
2023-05-24T03:37:39.532Z,66.91
2023-05-24T03:40:08.996Z,66.91
2023-05-24T03:43:05.672Z,66.80
2023-05-24T03:45:53.679Z,66.77
2023-05-24T03:48:21.159Z,66.76
2023-05-24T03:50:50.292Z,66.66
2023-05-24T03:53:19.221Z,66.34
2023-05-24T03:55:47.673Z,66.11
2023-05-24T03:58:14.700Z,65.83
2023-05-24T04:00:41.964Z,65.94
2023-05-24T04:03:09.492Z,65.85
2023-05-24T04:05:36.562Z,65.62
2023-05-24T04:08:05.095Z,65.58
2023-05-24T04:10:32.274Z,65.43
2023-05-24T04:13:00.863Z,65.47
2023-05-24T04:15:27.995Z,65.29
2023-05-24T04:17:55.771Z,65.43
2023-05-24T04:20:27.803Z,65.17
2023-05-24T04:22:56.365Z,65.25
2023-05-24T04:25:23.834Z,64.99
2023-05-24T04:27:51.040Z,65.04
2023-05-24T04:30:18.439Z,64.44
2023-05-24T04:32:45.679Z,64.09
2023-05-24T04:35:13.559Z,64.13
2023-05-24T04:37:41.066Z,63.86
2023-05-24T04:40:08.850Z,63.05
2023-05-24T04:42:36.138Z,63.18
2023-05-24T04:45:03.562Z,62.62
2023-05-24T04:47:33.930Z,61.77
2023-05-24T04:50:01.107Z,61.10
2023-05-24T04:52:28.315Z,61.28
2023-05-24T04:54:55.757Z,60.73
2023-05-24T04:57:22.987Z,60.68
2023-05-24T04:59:50.172Z,60.01
2023-05-24T05:02:17.661Z,60.02
2023-05-24T05:04:44.840Z,59.56
2023-05-24T05:07:11.898Z,59.00
2023-05-24T05:09:39.044Z,59.06
2023-05-24T05:12:07.314Z,58.96
2023-05-24T05:14:34.518Z,59.27
2023-05-24T05:17:01.739Z,58.68
2023-05-24T05:19:28.965Z,58.22
2023-05-24T05:21:56.119Z,57.94
2023-05-24T05:24:23.353Z,58.41
2023-05-24T05:26:50.915Z,57.90
2023-05-24T05:29:17.990Z,58.15
2023-05-24T05:31:45.242Z,57.69
2023-05-24T05:34:12.402Z,57.88
2023-05-24T05:36:41.045Z,57.75
2023-05-24T05:39:11.992Z,57.73
2023-05-24T05:41:39.880Z,57.85
2023-05-24T05:44:06.955Z,57.91
2023-05-24T05:46:34.064Z,57.93
2023-05-24T05:49:01.236Z,57.93
2023-05-24T05:51:28.383Z,57.84
2023-05-24T05:53:55.614Z,58.26
2023-05-24T05:56:22.683Z,58.05
2023-05-24T05:58:49.936Z,57.86
2023-05-24T06:01:17.139Z,57.54
2023-05-24T06:03:45.208Z,57.85
2023-05-24T06:06:12.612Z,57.43
2023-05-24T06:08:41.033Z,57.44
2023-05-24T06:11:08.176Z,57.59
2023-05-24T06:13:35.206Z,57.80
2023-05-24T06:16:02.341Z,57.54
2023-05-24T06:18:30.688Z,57.27
2023-05-24T06:20:57.806Z,57.19
2023-05-24T06:23:24.941Z,57.53
2023-05-24T06:25:52.004Z,57.32
2023-05-24T06:28:19.132Z,56.91
2023-05-24T06:30:47.751Z,57.29
2023-05-24T06:33:14.961Z,56.83
2023-05-24T06:35:42.018Z,56.89
2023-05-24T06:38:09.160Z,56.56
2023-05-24T06:40:36.271Z,56.57
2023-05-24T06:43:04.352Z,55.93
2023-05-24T06:45:32.304Z,55.90
2023-05-24T06:47:59.600Z,55.13
2023-05-24T06:50:26.694Z,54.83
2023-05-24T06:52:53.864Z,54.97
2023-05-24T06:55:21.173Z,54.17
2023-05-24T06:57:48.226Z,54.53
2023-05-24T07:00:15.746Z,54.72
2023-05-24T07:02:43.033Z,54.69
2023-05-24T07:05:12.861Z,55.13
2023-05-24T07:07:43.991Z,55.00
2023-05-24T07:10:11.880Z,55.30
2023-05-24T07:12:39.049Z,55.04
2023-05-24T07:15:07.358Z,54.92
2023-05-24T07:17:34.828Z,54.76
2023-05-24T07:20:02.570Z,55.03
2023-05-24T07:22:32.718Z,55.02
2023-05-24T07:24:59.794Z,54.80
2023-05-24T07:27:26.863Z,54.68
2023-05-24T07:29:54.334Z,54.90
2023-05-24T07:32:21.747Z,55.08
2023-05-24T07:34:48.932Z,54.88
2023-05-24T07:37:16.832Z,55.25
2023-05-24T07:39:43.943Z,55.09
2023-05-24T07:42:11.029Z,54.98
2023-05-24T07:44:38.080Z,55.02
2023-05-24T07:47:05.314Z,54.92
2023-05-24T07:49:32.669Z,55.02
2023-05-24T07:52:00.374Z,55.27
2023-05-24T07:54:27.426Z,55.19
2023-05-24T07:56:54.518Z,55.06
2023-05-24T07:59:23.048Z,54.93
2023-05-24T08:01:50.708Z,55.17
2023-05-24T08:04:18.154Z,54.75
2023-05-24T08:06:46.893Z,54.87
2023-05-24T08:09:14.162Z,54.32
2023-05-24T08:11:41.958Z,54.76
2023-05-24T08:14:09.092Z,54.15
2023-05-24T08:16:36.255Z,54.28
2023-05-24T08:19:03.405Z,54.46
2023-05-24T08:21:30.687Z,54.60
2023-05-24T08:23:57.861Z,54.10
2023-05-24T08:26:24.944Z,54.37
2023-05-24T08:28:52.496Z,54.65
2023-05-24T08:31:19.564Z,55.09
2023-05-24T08:33:50.593Z,55.06
2023-05-24T08:36:18.518Z,54.68
2023-05-24T08:38:45.585Z,54.90
2023-05-24T08:41:12.657Z,55.35
2023-05-24T08:43:39.800Z,54.84
2023-05-24T08:46:08.001Z,54.70
2023-05-24T08:48:45.330Z,54.14
2023-05-24T08:51:16.950Z,54.08
2023-05-24T08:53:48.968Z,53.93
2023-05-24T08:56:18.062Z,54.10
2023-05-24T08:58:47.308Z,54.18
2023-05-24T09:01:17.016Z,53.64
2023-05-24T09:03:46.757Z,53.95
2023-05-24T09:06:16.968Z,53.71
2023-05-24T09:08:45.398Z,53.51
2023-05-24T09:11:14.797Z,53.31
2023-05-24T09:13:44.807Z,53.06
2023-05-24T09:16:12.526Z,53.21
2023-05-24T09:18:42.816Z,53.20
2023-05-24T09:21:12.027Z,53.49
2023-05-24T09:23:40.948Z,53.55
2023-05-24T09:26:09.835Z,53.75
2023-05-24T09:28:38.072Z,53.55
2023-05-24T09:31:07.920Z,53.33
2023-05-24T09:33:35.948Z,52.78
2023-05-24T09:36:07.322Z,52.00
2023-05-24T09:38:36.455Z,51.89
2023-05-24T09:41:08.864Z,51.17
2023-05-24T09:43:48.258Z,51.01
2023-05-24T09:46:22.346Z,51.07
2023-05-24T09:49:04.127Z,51.20
2023-05-24T09:51:31.207Z,51.06
2023-05-24T09:54:01.855Z,51.12
2023-05-24T09:56:30.272Z,50.68
2023-05-24T09:58:58.181Z,50.51
2023-05-24T10:01:26.986Z,49.87
2023-05-24T10:03:59.419Z,49.09
2023-05-24T10:06:26.869Z,49.43
2023-05-24T10:08:57.190Z,49.06
2023-05-24T10:11:24.494Z,49.23
2023-05-24T10:13:51.833Z,48.75
2023-05-24T10:16:18.980Z,48.20
2023-05-24T10:18:46.508Z,48.19
2023-05-24T10:21:14.133Z,47.89
2023-05-24T10:23:44.679Z,48.53
2023-05-24T10:26:12.805Z,48.63
2023-05-24T10:28:49.009Z,49.04
2023-05-24T10:31:22.942Z,48.38
2023-05-24T10:33:52.230Z,48.21
2023-05-24T10:36:20.052Z,47.92
2023-05-24T10:38:47.528Z,47.57
2023-05-24T10:41:14.614Z,47.90
2023-05-24T10:43:56.782Z,48.00
2023-05-24T10:46:33.498Z,48.19
2023-05-24T10:49:01.517Z,48.51
2023-05-24T10:51:39.594Z,48.73
2023-05-24T10:54:13.979Z,48.72
2023-05-24T10:56:43.290Z,48.22
2023-05-24T10:59:23.235Z,47.85
2023-05-24T11:02:01.073Z,47.69
2023-05-24T11:04:33.214Z,48.04
2023-05-24T11:07:11.684Z,48.11
2023-05-24T11:09:46.818Z,48.16
2023-05-24T11:12:19.110Z,48.05
2023-05-24T11:14:52.432Z,48.02
2023-05-24T11:17:22.878Z,48.16
2023-05-24T11:19:55.161Z,48.14
2023-05-24T11:22:25.673Z,48.25
2023-05-24T11:24:53.521Z,48.32
2023-05-24T11:27:21.108Z,48.73
2023-05-24T11:29:49.016Z,48.70
2023-05-24T11:32:19.032Z,48.95
2023-05-24T11:34:49.990Z,48.80
2023-05-24T11:37:18.838Z,48.81
2023-05-24T11:39:52.847Z,49.26
2023-05-24T11:42:22.328Z,49.98
2023-05-24T11:44:50.232Z,49.72
2023-05-24T11:47:20.506Z,49.78
2023-05-24T11:49:50.741Z,49.96
2023-05-24T11:52:17.782Z,49.91
2023-05-24T11:54:45.058Z,49.93
2023-05-24T11:57:12.956Z,49.91
2023-05-24T11:59:41.992Z,49.78
2023-05-24T12:02:09.287Z,49.69
2023-05-24T12:04:36.552Z,49.90
2023-05-24T12:07:03.869Z,50.30
2023-05-24T12:09:31.087Z,50.26
2023-05-24T12:11:58.817Z,49.80
2023-05-24T12:14:31.414Z,50.42
2023-05-24T12:16:59.839Z,50.48
2023-05-24T12:19:34.685Z,50.32
2023-05-24T12:22:07.510Z,50.48
2023-05-24T12:24:35.888Z,50.48
2023-05-24T12:27:08.894Z,50.53
2023-05-24T12:29:38.936Z,50.63
2023-05-24T12:32:12.477Z,50.77
2023-05-24T12:34:44.521Z,50.95
2023-05-24T12:37:13.655Z,50.89
2023-05-24T12:39:43.795Z,51.01
2023-05-24T12:42:16.227Z,50.98
2023-05-24T12:44:45.147Z,50.91
2023-05-24T12:47:12.760Z,51.15
2023-05-24T12:49:39.822Z,51.18
2023-05-24T12:52:07.149Z,51.16
2023-05-24T12:54:34.318Z,51.05
2023-05-24T12:57:03.383Z,50.86
2023-05-24T12:59:31.201Z,50.98
2023-05-24T13:01:58.340Z,51.45
2023-05-24T13:04:30.708Z,51.61
2023-05-24T13:06:57.998Z,51.57
2023-05-24T13:09:26.023Z,51.70
2023-05-24T13:11:54.350Z,51.32
2023-05-24T13:14:22.131Z,51.33
2023-05-24T13:16:49.779Z,51.25
2023-05-24T13:19:17.523Z,51.30
2023-05-24T13:21:45.675Z,51.32
2023-05-24T13:24:16.200Z,51.29
2023-05-24T13:26:45.176Z,51.40
2023-05-24T13:29:30.544Z,51.14
2023-05-24T13:32:00.065Z,51.68
2023-05-24T13:34:27.417Z,52.50
2023-05-24T13:36:55.064Z,51.88
2023-05-24T13:39:22.672Z,51.87
2023-05-24T13:41:50.249Z,51.64
2023-05-24T13:44:17.473Z,51.28
2023-05-24T13:46:45.033Z,51.59
2023-05-24T13:49:13.008Z,51.29
2023-05-24T13:51:40.550Z,51.38
2023-05-24T13:54:08.440Z,51.24
2023-05-24T13:56:36.789Z,51.42
2023-05-24T13:59:04.908Z,51.43
2023-05-24T14:01:33.715Z,51.20
2023-05-24T14:04:02.532Z,51.19
2023-05-24T14:06:29.954Z,51.42
2023-05-24T14:08:57.310Z,51.26
2023-05-24T14:11:25.625Z,51.36
2023-05-24T14:16:24.417Z,51.02
2023-05-24T14:18:51.915Z,51.26
2023-05-24T14:21:19.808Z,51.11
2023-05-24T14:23:46.965Z,50.96
2023-05-24T14:26:14.486Z,51.09
2023-05-24T14:28:41.596Z,51.11
2023-05-24T14:31:08.827Z,50.82
2023-05-24T14:33:36.085Z,50.85
2023-05-24T14:36:03.230Z,50.77
2023-05-24T14:38:30.497Z,50.63
2023-05-24T14:40:58.843Z,50.76
2023-05-24T14:43:26.359Z,50.88
2023-05-24T14:45:53.830Z,50.78
2023-05-24T14:48:20.990Z,50.65
2023-05-24T14:50:48.100Z,50.38
2023-05-24T14:53:15.183Z,50.46
2023-05-24T14:55:43.896Z,50.68
2023-05-24T14:58:12.331Z,50.30
2023-05-24T15:00:41.128Z,49.94
2023-05-24T15:03:09.112Z,49.49
2023-05-24T15:05:36.808Z,49.15
2023-05-24T15:08:05.703Z,48.89
2023-05-24T15:10:33.465Z,48.72
2023-05-24T15:13:01.653Z,48.42
2023-05-24T15:15:29.312Z,48.07
2023-05-24T15:17:59.659Z,48.12
2023-05-24T15:20:27.200Z,47.87
2023-05-24T15:22:54.281Z,48.55
2023-05-24T15:25:21.580Z,48.64
2023-05-24T15:27:49.280Z,49.11
2023-05-24T15:30:17.628Z,48.77
2023-05-24T15:32:46.588Z,49.06
2023-05-24T15:35:14.397Z,49.01
2023-05-24T15:37:42.960Z,48.64
2023-05-24T15:40:11.206Z,48.58
2023-05-24T15:42:38.296Z,48.71
2023-05-24T15:45:05.850Z,48.71
2023-05-24T15:47:38.180Z,48.44
2023-05-24T15:50:07.874Z,48.48
2023-05-24T15:52:35.661Z,48.75
2023-05-24T15:55:02.767Z,48.51
2023-05-24T15:57:31.541Z,49.27
2023-05-24T15:59:58.712Z,49.40
2023-05-24T16:02:25.995Z,49.97
2023-05-24T16:04:53.325Z,50.96
2023-05-24T16:07:20.519Z,50.52
2023-05-24T16:09:50.231Z,51.11
2023-05-24T16:12:17.969Z,50.82
2023-05-24T16:14:45.275Z,51.15
2023-05-24T16:17:13.543Z,50.90
2023-05-24T16:19:41.367Z,51.12
2023-05-24T16:22:08.707Z,51.33
2023-05-24T16:24:35.758Z,51.52
2023-05-24T16:27:02.908Z,51.24
2023-05-24T16:29:30.414Z,51.11
2023-05-24T16:31:57.713Z,51.28
2023-05-24T16:34:25.214Z,51.02
2023-05-24T16:36:52.434Z,51.68
2023-05-24T16:39:19.543Z,52.16
2023-05-24T16:41:47.132Z,51.98
2023-05-24T16:44:18.013Z,52.20
2023-05-24T16:46:46.256Z,52.79
2023-05-24T16:49:13.706Z,52.99
2023-05-24T16:51:40.941Z,53.06
2023-05-24T16:54:09.216Z,53.22
2023-05-24T16:56:37.984Z,53.39
2023-05-24T16:59:05.820Z,53.99
2023-05-24T17:01:33.220Z,54.20
2023-05-24T17:04:00.729Z,54.10
2023-05-24T17:06:28.043Z,54.61
2023-05-24T17:08:55.157Z,54.99
2023-05-24T17:11:23.278Z,54.62
2023-05-24T17:13:51.627Z,54.83
2023-05-24T17:16:19.002Z,54.81
2023-05-24T17:18:46.409Z,54.87
2023-05-24T17:21:13.885Z,55.27
2023-05-24T17:23:40.936Z,55.77
2023-05-24T17:26:08.302Z,55.78
2023-05-24T17:28:36.528Z,56.10
2023-05-24T17:31:04.237Z,56.06
2023-05-24T17:33:32.404Z,56.37
2023-05-24T17:36:04.426Z,56.35
2023-05-24T17:38:37.623Z,56.36
2023-05-24T17:41:07.855Z,56.61
2023-05-24T17:43:36.867Z,56.82
2023-05-24T17:46:06.723Z,57.04
2023-05-24T17:48:36.898Z,57.27
2023-05-24T17:51:08.662Z,57.68
2023-05-24T17:53:38.189Z,57.86
2023-05-24T17:56:06.628Z,57.91
2023-05-24T17:58:36.895Z,57.87
2023-05-24T18:01:07.248Z,57.58
2023-05-24T18:03:37.309Z,57.54
2023-05-24T18:06:07.013Z,58.03
2023-05-24T18:08:37.320Z,58.24
2023-05-24T18:11:08.653Z,58.58
2023-05-24T18:13:37.739Z,58.53
2023-05-24T18:16:06.055Z,58.48
2023-05-24T18:18:33.261Z,59.01
2023-05-24T18:21:00.422Z,58.76
2023-05-24T18:23:27.559Z,58.80
2023-05-24T18:26:00.600Z,58.86
2023-05-24T18:28:30.435Z,58.91
2023-05-24T18:30:57.550Z,59.08
2023-05-24T18:33:24.790Z,59.44
2023-05-24T18:35:52.040Z,59.57
2023-05-24T18:38:19.100Z,59.59
2023-05-24T18:40:46.259Z,59.57
2023-05-24T18:43:13.357Z,59.99
2023-05-24T18:45:40.600Z,59.98
2023-05-24T18:48:08.183Z,60.01
2023-05-24T18:50:35.335Z,59.99
2023-05-24T18:53:02.422Z,59.87
2023-05-24T18:55:29.523Z,60.07
2023-05-24T18:57:56.688Z,60.52
2023-05-24T19:00:24.631Z,60.50
2023-05-24T19:02:52.174Z,60.37
2023-05-24T19:05:20.114Z,60.58
2023-05-24T19:07:47.292Z,60.35
2023-05-24T19:10:14.433Z,60.60
2023-05-24T19:12:41.599Z,60.48
2023-05-24T19:15:09.211Z,60.81
2023-05-24T19:17:36.344Z,60.73
2023-05-24T19:20:04.126Z,61.09
2023-05-24T19:22:33.991Z,61.44
2023-05-24T19:25:01.575Z,61.26
2023-05-24T19:27:31.709Z,61.38
2023-05-24T19:30:00.261Z,61.63
2023-05-24T19:32:28.028Z,62.17
2023-05-24T19:34:55.306Z,61.94
2023-05-24T19:37:22.704Z,62.15
2023-05-24T19:39:51.498Z,61.99
2023-05-24T19:42:18.823Z,62.10
2023-05-24T19:44:45.997Z,62.43
2023-05-24T19:47:13.216Z,62.44
2023-05-24T19:49:40.369Z,62.51
2023-05-24T19:52:07.574Z,62.76
2023-05-24T19:54:34.716Z,62.62
2023-05-24T19:57:02.610Z,62.82
2023-05-24T19:59:29.860Z,62.95
2023-05-24T20:01:56.958Z,63.24
2023-05-24T20:04:24.214Z,63.39
2023-05-24T20:06:53.468Z,63.61
2023-05-24T20:09:20.698Z,63.41
2023-05-24T20:11:47.861Z,63.56
2023-05-24T20:14:15.095Z,63.77
2023-05-24T20:16:42.266Z,63.73
2023-05-24T20:19:10.650Z,64.17
2023-05-24T20:21:37.955Z,64.19
2023-05-24T20:24:05.540Z,64.31
2023-05-24T20:26:33.550Z,64.21
2023-05-24T20:29:01.111Z,64.67
2023-05-24T20:31:28.300Z,64.57
2023-05-24T20:33:55.443Z,64.61
2023-05-24T20:36:22.524Z,64.83
2023-05-24T20:38:50.362Z,65.02
2023-05-24T20:41:18.127Z,65.29
2023-05-24T20:43:45.252Z,65.27
2023-05-24T20:46:14.075Z,65.64
2023-05-24T20:48:42.254Z,65.92
2023-05-24T20:51:09.974Z,66.07
2023-05-24T20:53:37.804Z,66.05
2023-05-24T20:56:04.954Z,65.84
2023-05-24T20:58:32.114Z,65.92
2023-05-24T21:00:59.336Z,66.14
2023-05-24T21:03:26.536Z,65.69
2023-05-24T21:05:53.693Z,65.70
2023-05-24T21:08:20.935Z,66.04
2023-05-24T21:10:48.042Z,65.91
2023-05-24T21:13:15.287Z,66.14
2023-05-24T21:15:44.712Z,66.66
2023-05-24T21:18:13.078Z,66.67
2023-05-24T21:20:40.639Z,66.60
2023-05-24T21:23:07.881Z,66.49
2023-05-24T21:25:35.098Z,66.81
2023-05-24T21:28:02.257Z,66.58
2023-05-24T21:30:30.655Z,66.76
2023-05-24T21:32:57.935Z,66.72
2023-05-24T21:35:25.159Z,66.72
2023-05-24T21:37:52.770Z,66.84
2023-05-24T21:40:19.897Z,66.70
2023-05-24T21:42:47.470Z,66.69
2023-05-24T21:45:14.641Z,66.72
2023-05-24T21:47:42.870Z,66.63
2023-05-24T21:50:10.371Z,66.57
2023-05-24T21:52:37.585Z,66.90
2023-05-24T21:55:05.589Z,66.91
2023-05-24T21:57:32.870Z,67.27
2023-05-24T22:00:00.129Z,67.03
2023-05-24T22:02:27.499Z,67.35
2023-05-24T22:04:54.893Z,67.48
2023-05-24T22:07:22.077Z,67.54
2023-05-24T22:09:49.215Z,67.73
2023-05-24T22:12:16.514Z,67.73
2023-05-24T22:14:43.627Z,67.49
2023-05-24T22:17:11.446Z,67.20
2023-05-24T22:19:41.420Z,66.95
2023-05-24T22:22:10.005Z,67.00
2023-05-24T22:24:37.163Z,67.13
2023-05-24T22:27:04.898Z,67.02
2023-05-24T22:29:31.971Z,67.12
2023-05-24T22:31:59.084Z,66.87
2023-05-24T22:34:29.264Z,66.96
2023-05-24T22:36:57.734Z,67.28
2023-05-24T22:39:25.296Z,67.21
2023-05-24T22:41:52.974Z,67.08
2023-05-24T22:44:20.337Z,67.06
2023-05-24T22:46:49.925Z,67.69
2023-05-24T22:49:20.097Z,67.90
2023-05-24T22:51:48.848Z,67.97
2023-05-24T22:54:16.404Z,68.13
2023-05-24T22:56:44.159Z,67.62
2023-05-24T22:59:11.596Z,67.59
2023-05-24T23:01:39.068Z,67.57
2023-05-24T23:04:19.831Z,67.63
2023-05-24T23:06:53.233Z,67.62
2023-05-24T23:09:41.700Z,67.53
2023-05-24T23:12:09.337Z,67.61
2023-05-24T23:14:41.909Z,67.76
2023-05-24T23:17:15.810Z,67.88
2023-05-24T23:19:43.445Z,68.04
2023-05-24T23:22:23.802Z,68.16
2023-05-24T23:24:51.299Z,68.18
2023-05-24T23:27:18.630Z,68.23
2023-05-24T23:29:45.752Z,68.37
2023-05-24T23:32:12.979Z,68.31
2023-05-24T23:34:40.040Z,68.50
2023-05-24T23:37:07.725Z,68.57
2023-05-24T23:39:34.911Z,68.71
2023-05-24T23:42:02.680Z,68.72
2023-05-24T23:44:29.891Z,68.87
2023-05-24T23:46:57.405Z,68.91
2023-05-24T23:49:25.886Z,68.88
2023-05-24T23:51:53.000Z,68.72
2023-05-24T23:54:20.335Z,68.74
2023-05-24T23:56:47.607Z,68.79
2023-05-24T23:59:17.045Z,68.83
